Terminal Aerodrome Forecast
Issued by NWS Pueblo, CO

Home | Current Version | Previous Version | Text Only | Print | Product List | Glossary On
Versions: 1 2 3 4 5 6 7 8 9 10 11 12 13 14 15 16 17 18 19 20 21 22 23 24 25 26 27 28 29 30 31 32 33 34 35 36 37 38 39 40 41 42 43 44 45 46 47 48 49 50
000
FTUS45 KPUB 221120
TAFPUB
TAF
KPUB 221120Z 2212/2312 10010KT P6SM BKN004 OVC035
      TEMPO 2212/2214 5SM -RA BR SCT002 OVC004
     FM221400 12008KT P6SM SCT010 BKN035
     FM221800 18010KT P6SM FEW090 SCT130
     FM222200 17014KT P6SM VCTS SCT090CB BKN130
     FM230200 12010KT P6SM SCT100 BKN200
     FM230500 05007KT P6SM SCT200=

USA.gov is the U.S. government's official web portal to all federal, state and local government web resources and services.